PWSweather.com
Personal Weather Stations
Station Observations
SEVANL01
SevillaES 41004

SevillaES 41004

Lat: 37.383633, Lon: -5.985787

Elevation: 19.685

Station Type: Davis Vantage Pro2

www.tiempoensevilla.es

High Low Average
Temperature 91.3°F32.9°C 72.3°F22.4°C 80.5°F26.9°C
Dew Point 67.4°F19.7°C 57.8°F14.3°C 62.4°F16.9°C
Winds 9.4 mph 15.1 kmh 0.7 mph 1.1 kmh 4.0 mph SW6.4 kmh SW
Wind Gusts 20.0 mph32.2 kmh 3.0 mph4.8 kmh 10.0 mph16.1 kmh
Humidity 78% 36% 55%
Pressure 29.97 in1014.9 mb 29.86 in1011.2 mb -
Precipitation 0.00 in0.0 mm - -
Hour Temp Dew Point Humidity Winds Wind Gusts Pressure Precip Precip Rate Daily Precip Total
12:00 AM 80.1°F26.7°C 59.2°F15.1°C 49% 3.3 mph SW5.3 kmh SW 7.0 mph11.3 kmh 29.92 in1013.2 mb 0.00 in0.0 mm 0.00 in0.0 mm 0.00 in0.0 mm
12:20 AM 79.8°F26.6°C 58.9°F14.9°C 49% 3.7 mph WSW6.0 kmh WSW 10.0 mph16.1 kmh 29.92 in1013.2 mb 0.00 in0.0 mm 0.00 in0.0 mm 0.00 in0.0 mm
12:40 AM 79.4°F26.3°C 59.1°F15.1°C 50% 3.1 mph WSW5.0 kmh WSW 8.0 mph12.9 kmh 29.93 in1013.5 mb 0.00 in0.0 mm 0.00 in0.0 mm 0.00 in0.0 mm
01:00 AM 79.3°F26.3°C 59.0°F15.0°C 50% 2.5 mph W4.0 kmh W 8.0 mph12.9 kmh 29.93 in1013.5 mb 0.00 in0.0 mm 0.00 in0.0 mm 0.00 in0.0 mm
01:20 AM 79.2°F26.2°C 59.0°F15.0°C 50% 1.0 mph NW1.6 kmh NW 5.0 mph8.0 kmh 29.93 in1013.5 mb 0.00 in0.0 mm 0.00 in0.0 mm 0.00 in0.0 mm
01:40 AM 79.0°F26.1°C 58.2°F14.6°C 49% 2.0 mph NW3.2 kmh NW 4.0 mph6.4 kmh 29.92 in1013.2 mb 0.00 in0.0 mm 0.00 in0.0 mm 0.00 in0.0 mm
02:00 AM 78.7°F25.9°C 58.5°F14.7°C 50% 1.6 mph WNW2.6 kmh WNW 7.0 mph11.3 kmh 29.92 in1013.2 mb 0.00 in0.0 mm 0.00 in0.0 mm 0.00 in0.0 mm
02:20 AM 78.2°F25.7°C 58.6°F14.8°C 51% 3.0 mph WNW4.8 kmh WNW 8.0 mph12.9 kmh 29.91 in1012.9 mb 0.00 in0.0 mm 0.00 in0.0 mm 0.00 in0.0 mm
02:40 AM 77.7°F25.4°C 58.7°F14.8°C 52% 2.5 mph WSW4.0 kmh WSW 5.0 mph8.0 kmh 29.91 in1012.9 mb 0.00 in0.0 mm 0.00 in0.0 mm 0.00 in0.0 mm
03:00 AM 77.6°F25.3°C 58.6°F14.8°C 52% 2.0 mph W3.2 kmh W 6.0 mph9.7 kmh 29.91 in1012.9 mb 0.00 in0.0 mm 0.00 in0.0 mm 0.00 in0.0 mm
03:20 AM 77.1°F25.1°C 58.6°F14.8°C 53% 2.0 mph W3.2 kmh W 6.0 mph9.7 kmh 29.90 in1012.5 mb 0.00 in0.0 mm 0.00 in0.0 mm 0.00 in0.0 mm
03:40 AM 77.1°F25.1°C 58.1°F14.5°C 52% 1.9 mph WNW3.1 kmh WNW 7.0 mph11.3 kmh 29.90 in1012.5 mb 0.00 in0.0 mm 0.00 in0.0 mm 0.00 in0.0 mm
04:00 AM 77.3°F25.2°C 58.3°F14.6°C 52% 1.3 mph W2.1 kmh W 5.0 mph8.0 kmh 29.90 in1012.5 mb 0.00 in0.0 mm 0.00 in0.0 mm 0.00 in0.0 mm
04:20 AM 77.0°F25.0°C 58.0°F14.4°C 52% 1.9 mph NW3.1 kmh NW 6.0 mph9.7 kmh 29.91 in1012.9 mb 0.00 in0.0 mm 0.00 in0.0 mm 0.00 in0.0 mm
04:40 AM 76.9°F24.9°C 57.9°F14.4°C 52% 1.5 mph W2.4 kmh W 7.0 mph11.3 kmh 29.91 in1012.9 mb 0.00 in0.0 mm 0.00 in0.0 mm 0.00 in0.0 mm
05:00 AM 76.8°F24.9°C 57.8°F14.3°C 52% 1.3 mph SW2.1 kmh SW 7.0 mph11.3 kmh 29.91 in1012.9 mb 0.00 in0.0 mm 0.00 in0.0 mm 0.00 in0.0 mm
05:20 AM 76.2°F24.6°C 58.3°F14.6°C 54% 2.0 mph WSW3.2 kmh WSW 7.0 mph11.3 kmh 29.91 in1012.9 mb 0.00 in0.0 mm 0.00 in0.0 mm 0.00 in0.0 mm
05:40 AM 75.8°F24.3°C 58.5°F14.7°C 55% 2.0 mph WSW3.2 kmh WSW 4.0 mph6.4 kmh 29.91 in1012.9 mb 0.00 in0.0 mm 0.00 in0.0 mm 0.00 in0.0 mm
06:00 AM 75.8°F24.3°C 58.5°F14.7°C 55% 2.4 mph WSW3.9 kmh WSW 9.0 mph14.5 kmh 29.91 in1012.9 mb 0.00 in0.0 mm 0.00 in0.0 mm 0.00 in0.0 mm
06:20 AM 75.7°F24.3°C 58.4°F14.7°C 55% 2.0 mph WSW3.2 kmh WSW 6.0 mph9.7 kmh 29.91 in1012.9 mb 0.00 in0.0 mm 0.00 in0.0 mm 0.00 in0.0 mm
06:40 AM 75.4°F24.1°C 58.6°F14.8°C 56% 1.9 mph SW3.1 kmh SW 4.0 mph6.4 kmh 29.92 in1013.2 mb 0.00 in0.0 mm 0.00 in0.0 mm 0.00 in0.0 mm
07:00 AM 75.5°F24.2°C 58.7°F14.8°C 56% 0.7 mph SW1.1 kmh SW 3.0 mph4.8 kmh 29.92 in1013.2 mb 0.00 in0.0 mm 0.00 in0.0 mm 0.00 in0.0 mm
07:20 AM 75.6°F24.2°C 59.8°F15.4°C 58% 1.0 mph SW1.6 kmh SW 4.0 mph6.4 kmh 29.92 in1013.2 mb 0.00 in0.0 mm 0.00 in0.0 mm 0.00 in0.0 mm
07:40 AM 75.3°F24.1°C 60.5°F15.8°C 60% 1.8 mph SSW2.9 kmh SSW 4.0 mph6.4 kmh 29.93 in1013.5 mb 0.00 in0.0 mm 0.00 in0.0 mm 0.00 in0.0 mm
08:00 AM 75.1°F23.9°C 60.3°F15.7°C 60% 2.0 mph SSW3.2 kmh SSW 6.0 mph9.7 kmh 29.93 in1013.5 mb 0.00 in0.0 mm 0.00 in0.0 mm 0.00 in0.0 mm
08:20 AM 75.6°F24.2°C 60.7°F15.9°C 60% 1.7 mph SSE2.7 kmh SSE 5.0 mph8.0 kmh 29.94 in1013.9 mb 0.00 in0.0 mm 0.00 in0.0 mm 0.00 in0.0 mm
08:40 AM 76.1°F24.5°C 61.2°F16.2°C 60% 1.9 mph S3.1 kmh S 5.0 mph8.0 kmh 29.94 in1013.9 mb 0.00 in0.0 mm 0.00 in0.0 mm 0.00 in0.0 mm
09:00 AM 77.3°F25.2°C 61.4°F16.3°C 58% 1.4 mph SW2.3 kmh SW 4.0 mph6.4 kmh 29.94 in1013.9 mb 0.00 in0.0 mm 0.00 in0.0 mm 0.00 in0.0 mm
09:20 AM 77.9°F25.5°C 61.9°F16.6°C 58% 2.8 mph WSW4.5 kmh WSW 5.0 mph8.0 kmh 29.94 in1013.9 mb 0.00 in0.0 mm 0.00 in0.0 mm 0.00 in0.0 mm
09:40 AM 79.4°F26.3°C 62.8°F17.1°C 57% 1.8 mph SSW2.9 kmh SSW 6.0 mph9.7 kmh 29.94 in1013.9 mb 0.00 in0.0 mm 0.00 in0.0 mm 0.00 in0.0 mm
10:00 AM 80.1°F26.7°C 62.5°F16.9°C 55% 2.4 mph SW3.9 kmh SW 7.0 mph11.3 kmh 29.94 in1013.9 mb 0.00 in0.0 mm 0.00 in0.0 mm 0.00 in0.0 mm
10:20 AM 80.8°F27.1°C 63.1°F17.3°C 55% 2.8 mph S4.5 kmh S 6.0 mph9.7 kmh 29.94 in1013.9 mb 0.00 in0.0 mm 0.00 in0.0 mm 0.00 in0.0 mm
10:40 AM 81.9°F27.7°C 61.4°F16.3°C 50% 3.2 mph SW5.1 kmh SW 8.0 mph12.9 kmh 29.94 in1013.9 mb 0.00 in0.0 mm 0.00 in0.0 mm 0.00 in0.0 mm
11:00 AM 82.3°F27.9°C 63.5°F17.5°C 53% 3.6 mph SW5.8 kmh SW 8.0 mph12.9 kmh 29.94 in1013.9 mb 0.00 in0.0 mm 0.00 in0.0 mm 0.00 in0.0 mm
11:20 AM 83.1°F28.4°C 63.1°F17.3°C 51% 3.1 mph S5.0 kmh S 9.0 mph14.5 kmh 29.93 in1013.5 mb 0.00 in0.0 mm 0.00 in0.0 mm 0.00 in0.0 mm
11:40 AM 84.0°F28.9°C 63.4°F17.4°C 50% 4.0 mph S6.4 kmh S 7.0 mph11.3 kmh 29.93 in1013.5 mb 0.00 in0.0 mm 0.00 in0.0 mm 0.00 in0.0 mm
12:00 PM 84.4°F29.1°C 63.7°F17.6°C 50% 4.0 mph S6.4 kmh S 8.0 mph12.9 kmh 29.93 in1013.5 mb 0.00 in0.0 mm 0.00 in0.0 mm 0.00 in0.0 mm
12:20 PM 84.9°F29.4°C 63.6°F17.6°C 49% 4.0 mph SSW6.4 kmh SSW 9.0 mph14.5 kmh 29.93 in1013.5 mb 0.00 in0.0 mm 0.00 in0.0 mm 0.00 in0.0 mm
12:40 PM 85.7°F29.8°C 64.3°F17.9°C 49% 4.4 mph SSW7.1 kmh SSW 12.0 mph19.3 kmh 29.92 in1013.2 mb 0.00 in0.0 mm 0.00 in0.0 mm 0.00 in0.0 mm
01:00 PM 86.2°F30.1°C 64.8°F18.2°C 49% 4.6 mph S7.4 kmh S 10.0 mph16.1 kmh 29.92 in1013.2 mb 0.00 in0.0 mm 0.00 in0.0 mm 0.00 in0.0 mm
01:20 PM 86.2°F30.1°C 64.8°F18.2°C 49% 5.0 mph SSW8.0 kmh SSW 11.0 mph17.7 kmh 29.91 in1012.9 mb 0.00 in0.0 mm 0.00 in0.0 mm 0.00 in0.0 mm
01:40 PM 86.4°F30.2°C 65.0°F18.3°C 49% 5.5 mph SW8.9 kmh SW 12.0 mph19.3 kmh 29.91 in1012.9 mb 0.00 in0.0 mm 0.00 in0.0 mm 0.00 in0.0 mm
02:00 PM 87.6°F30.9°C 64.9°F18.3°C 47% 4.0 mph S6.4 kmh S 11.0 mph17.7 kmh 29.90 in1012.5 mb 0.00 in0.0 mm 0.00 in0.0 mm 0.00 in0.0 mm
02:20 PM 88.3°F31.3°C 64.3°F17.9°C 45% 4.0 mph SSW6.4 kmh SSW 10.0 mph16.1 kmh 29.90 in1012.5 mb 0.00 in0.0 mm 0.00 in0.0 mm 0.00 in0.0 mm
02:40 PM 89.2°F31.8°C 63.1°F17.3°C 42% 4.2 mph SSW6.8 kmh SSW 9.0 mph14.5 kmh 29.89 in1012.2 mb 0.00 in0.0 mm 0.00 in0.0 mm 0.00 in0.0 mm
03:00 PM 89.5°F31.9°C 62.0°F16.7°C 40% 4.5 mph SSW7.2 kmh SSW 11.0 mph17.7 kmh 29.89 in1012.2 mb 0.00 in0.0 mm 0.00 in0.0 mm 0.00 in0.0 mm
03:20 PM 89.8°F32.1°C 60.1°F15.6°C 37% 5.3 mph SW8.5 kmh SW 13.0 mph20.9 kmh 29.88 in1011.9 mb 0.00 in0.0 mm 0.00 in0.0 mm 0.00 in0.0 mm
03:40 PM 90.8°F32.7°C 60.2°F15.7°C 36% 4.0 mph SW6.4 kmh SW 13.0 mph20.9 kmh 29.87 in1011.5 mb 0.00 in0.0 mm 0.00 in0.0 mm 0.00 in0.0 mm
04:00 PM 91.3°F32.9°C 61.4°F16.3°C 37% 4.5 mph SW7.2 kmh SW 11.0 mph17.7 kmh 29.87 in1011.5 mb 0.00 in0.0 mm 0.00 in0.0 mm 0.00 in0.0 mm
04:20 PM 90.2°F32.3°C 67.2°F19.6°C 47% 6.2 mph S10.0 kmh S 17.0 mph27.4 kmh 29.86 in1011.2 mb 0.00 in0.0 mm 0.00 in0.0 mm 0.00 in0.0 mm
04:40 PM 88.9°F31.6°C 67.3°F19.6°C 49% 7.1 mph SSW11.4 kmh SSW 16.0 mph25.7 kmh 29.87 in1011.5 mb 0.00 in0.0 mm 0.00 in0.0 mm 0.00 in0.0 mm
05:00 PM 88.4°F31.3°C 67.4°F19.7°C 50% 8.2 mph SW13.2 kmh SW 20.0 mph32.2 kmh 29.86 in1011.2 mb 0.00 in0.0 mm 0.00 in0.0 mm 0.00 in0.0 mm
05:20 PM 87.0°F30.6°C 66.7°F19.3°C 51% 8.3 mph SW13.4 kmh SW 19.0 mph30.6 kmh 29.86 in1011.2 mb 0.00 in0.0 mm 0.00 in0.0 mm 0.00 in0.0 mm
05:40 PM 86.3°F30.2°C 66.6°F19.2°C 52% 7.9 mph SW12.7 kmh SW 17.0 mph27.4 kmh 29.86 in1011.2 mb 0.00 in0.0 mm 0.00 in0.0 mm 0.00 in0.0 mm
06:00 PM 84.8°F29.3°C 66.3°F19.1°C 54% 9.4 mph SW15.1 kmh SW 20.0 mph32.2 kmh 29.86 in1011.2 mb 0.00 in0.0 mm 0.00 in0.0 mm 0.00 in0.0 mm
06:20 PM 84.4°F29.1°C 66.5°F19.2°C 55% 8.7 mph SW14.0 kmh SW 17.0 mph27.4 kmh 29.86 in1011.2 mb 0.00 in0.0 mm 0.00 in0.0 mm 0.00 in0.0 mm
06:40 PM 83.9°F28.8°C 66.5°F19.2°C 56% 8.0 mph SW12.9 kmh SW 17.0 mph27.4 kmh 29.87 in1011.5 mb 0.00 in0.0 mm 0.00 in0.0 mm 0.00 in0.0 mm
07:00 PM 83.0°F28.3°C 66.2°F19.0°C 57% 7.4 mph SW11.9 kmh SW 17.0 mph27.4 kmh 29.88 in1011.9 mb 0.00 in0.0 mm 0.00 in0.0 mm 0.00 in0.0 mm
07:20 PM 82.0°F27.8°C 66.3°F19.1°C 59% 8.1 mph SW13.0 kmh SW 16.0 mph25.7 kmh 29.88 in1011.9 mb 0.00 in0.0 mm 0.00 in0.0 mm 0.00 in0.0 mm
07:40 PM 80.8°F27.1°C 65.6°F18.7°C 60% 7.5 mph SW12.1 kmh SW 15.0 mph24.1 kmh 29.88 in1011.9 mb 0.00 in0.0 mm 0.00 in0.0 mm 0.00 in0.0 mm
08:00 PM 80.1°F26.7°C 65.4°F18.6°C 61% 7.0 mph SW11.3 kmh SW 16.0 mph25.7 kmh 29.89 in1012.2 mb 0.00 in0.0 mm 0.00 in0.0 mm 0.00 in0.0 mm
08:20 PM 79.4°F26.3°C 65.7°F18.7°C 63% 6.8 mph SW10.9 kmh SW 17.0 mph27.4 kmh 29.89 in1012.2 mb 0.00 in0.0 mm 0.00 in0.0 mm 0.00 in0.0 mm
08:40 PM 78.7°F25.9°C 65.5°F18.6°C 64% 6.9 mph SW11.1 kmh SW 13.0 mph20.9 kmh 29.90 in1012.5 mb 0.00 in0.0 mm 0.00 in0.0 mm 0.00 in0.0 mm
09:00 PM 77.8°F25.4°C 65.5°F18.6°C 66% 5.6 mph SW9.0 kmh SW 14.0 mph22.5 kmh 29.91 in1012.9 mb 0.00 in0.0 mm 0.00 in0.0 mm 0.00 in0.0 mm
09:20 PM 76.6°F24.8°C 65.2°F18.4°C 68% 7.8 mph SW12.6 kmh SW 15.0 mph24.1 kmh 29.92 in1013.2 mb 0.00 in0.0 mm 0.00 in0.0 mm 0.00 in0.0 mm
09:40 PM 76.0°F24.4°C 65.9°F18.8°C 71% 4.7 mph SW7.6 kmh SW 10.0 mph16.1 kmh 29.93 in1013.5 mb 0.00 in0.0 mm 0.00 in0.0 mm 0.00 in0.0 mm
10:00 PM 75.0°F23.9°C 65.8°F18.8°C 73% 6.4 mph SW10.3 kmh SW 16.0 mph25.7 kmh 29.94 in1013.9 mb 0.00 in0.0 mm 0.00 in0.0 mm 0.00 in0.0 mm
10:20 PM 74.3°F23.5°C 65.9°F18.8°C 75% 5.0 mph SW8.0 kmh SW 12.0 mph19.3 kmh 29.95 in1014.2 mb 0.00 in0.0 mm 0.00 in0.0 mm 0.00 in0.0 mm
10:40 PM 73.5°F23.1°C 65.8°F18.8°C 77% 5.9 mph SW9.5 kmh SW 14.0 mph22.5 kmh 29.96 in1014.6 mb 0.00 in0.0 mm 0.00 in0.0 mm 0.00 in0.0 mm
11:00 PM 72.7°F22.6°C 65.4°F18.6°C 78% 5.8 mph SW9.3 kmh SW 15.0 mph24.1 kmh 29.97 in1014.9 mb 0.00 in0.0 mm 0.00 in0.0 mm 0.00 in0.0 mm
11:20 PM 72.5°F22.5°C 65.2°F18.4°C 78% 5.8 mph SW9.3 kmh SW 11.0 mph17.7 kmh 29.97 in1014.9 mb 0.00 in0.0 mm 0.00 in0.0 mm 0.00 in0.0 mm
11:40 PM 72.3°F22.4°C 65.1°F18.4°C 78% 5.0 mph SW8.0 kmh SW 11.0 mph17.7 kmh 29.97 in1014.9 mb 0.00 in0.0 mm 0.00 in0.0 mm 0.00 in0.0 mm